createdAt,value
2018-09-17T00:02:27.450Z,62.90
2018-09-17T00:04:55.709Z,63.20
2018-09-17T00:07:24.020Z,63.20
2018-09-17T00:09:52.334Z,63.40
2018-09-17T00:12:20.591Z,63.60
2018-09-17T00:14:48.938Z,63.80
2018-09-17T00:17:17.219Z,64.00
2018-09-17T00:19:45.515Z,64.00
2018-09-17T00:22:13.811Z,64.10
2018-09-17T00:24:42.099Z,64.10
2018-09-17T00:27:10.410Z,64.00
2018-09-17T00:29:38.815Z,64.30
2018-09-17T00:32:07.511Z,64.40
2018-09-17T00:34:35.799Z,64.30
2018-09-17T00:37:04.149Z,64.40
2018-09-17T00:39:32.399Z,64.60
2018-09-17T00:42:00.690Z,65.10
2018-09-17T00:44:28.967Z,65.30
2018-09-17T00:46:57.282Z,65.50
2018-09-17T00:49:25.613Z,65.70
2018-09-17T00:51:53.851Z,65.70
2018-09-17T00:54:22.147Z,65.90
2018-09-17T00:56:50.437Z,66.10
2018-09-17T00:59:18.756Z,66.20
2018-09-17T01:01:46.997Z,66.20
2018-09-17T01:04:15.295Z,66.30
2018-09-17T01:06:43.571Z,66.50
2018-09-17T01:09:17.445Z,66.70
2018-09-17T01:11:45.758Z,67.20
2018-09-17T01:14:14.032Z,69.10
2018-09-17T01:16:42.291Z,69.90
2018-09-17T01:19:10.536Z,71.70
2018-09-17T01:21:38.785Z,72.10
2018-09-17T01:24:07.260Z,73.50
2018-09-17T01:26:35.573Z,73.10
2018-09-17T01:29:03.876Z,73.20
2018-09-17T01:31:32.141Z,74.20
2018-09-17T01:34:00.383Z,74.80
2018-09-17T01:36:28.693Z,75.20
2018-09-17T01:38:56.958Z,75.50
2018-09-17T01:41:25.388Z,76.20
2018-09-17T01:43:53.779Z,76.60
2018-09-17T01:46:22.088Z,77.10
2018-09-17T01:48:50.332Z,77.60
2018-09-17T01:51:18.612Z,77.80
2018-09-17T01:53:46.895Z,77.60
2018-09-17T01:56:15.208Z,77.80
2018-09-17T01:58:43.496Z,78.30
2018-09-17T02:01:11.755Z,78.90
2018-09-17T02:03:40.054Z,79.10
2018-09-17T02:06:08.336Z,80.10
2018-09-17T02:08:36.714Z,79.50
2018-09-17T02:11:05.143Z,79.70
2018-09-17T02:13:33.768Z,79.70
2018-09-17T02:16:02.125Z,80.00
2018-09-17T02:18:30.407Z,79.90
2018-09-17T02:20:58.659Z,79.70
2018-09-17T02:23:26.947Z,79.60
2018-09-17T02:25:55.210Z,80.00
2018-09-17T02:28:23.502Z,80.30
2018-09-17T02:30:51.840Z,79.60
2018-09-17T02:33:20.150Z,79.70
2018-09-17T02:35:48.448Z,79.40
2018-09-17T02:38:16.695Z,79.30
2018-09-17T02:40:45.002Z,79.40
2018-09-17T02:43:13.243Z,79.50
2018-09-17T02:45:41.475Z,79.60
2018-09-17T02:48:09.715Z,79.80
2018-09-17T02:50:37.982Z,80.10
2018-09-17T02:53:06.294Z,80.20
2018-09-17T02:55:34.541Z,80.20
2018-09-17T02:58:02.825Z,80.30
2018-09-17T03:00:31.084Z,80.50
2018-09-17T03:02:59.347Z,80.90
2018-09-17T03:05:27.696Z,80.90
2018-09-17T03:07:56.007Z,81.00
2018-09-17T03:10:24.318Z,80.80
2018-09-17T03:12:52.603Z,80.30
2018-09-17T03:15:31.940Z,80.00
2018-09-17T03:18:00.216Z,79.80
2018-09-17T03:20:28.585Z,79.90
2018-09-17T03:22:56.916Z,80.10
2018-09-17T03:25:31.764Z,80.30
2018-09-17T03:28:00.075Z,80.40
2018-09-17T03:30:28.331Z,80.70
2018-09-17T03:32:56.755Z,80.30
2018-09-17T03:35:25.081Z,80.20
2018-09-17T03:37:53.386Z,80.10
2018-09-17T03:40:21.732Z,80.30
2018-09-17T03:42:50.047Z,80.40
2018-09-17T03:45:18.541Z,80.20
2018-09-17T03:47:46.961Z,80.40
2018-09-17T03:50:15.311Z,80.20
2018-09-17T03:52:43.599Z,80.30
2018-09-17T03:55:11.875Z,80.40
2018-09-17T03:57:40.223Z,80.20
2018-09-17T04:00:08.488Z,80.40
2018-09-17T04:02:38.172Z,80.50
2018-09-17T04:05:06.446Z,80.50
2018-09-17T04:07:34.764Z,80.60
2018-09-17T04:10:03.037Z,80.70
2018-09-17T04:12:31.326Z,80.60
2018-09-17T04:14:59.576Z,81.20
2018-09-17T04:17:27.901Z,80.40
2018-09-17T04:19:56.100Z,80.40
2018-09-17T04:22:24.388Z,80.40
2018-09-17T04:24:52.680Z,80.30
2018-09-17T04:27:21.015Z,80.40
2018-09-17T04:29:49.332Z,80.60
2018-09-17T04:32:17.620Z,81.50
2018-09-17T04:34:45.928Z,81.50
2018-09-17T04:37:14.219Z,81.60
2018-09-17T04:39:42.624Z,82.10
2018-09-17T04:42:10.943Z,82.70
2018-09-17T04:44:39.172Z,82.40
2018-09-17T04:47:07.488Z,82.30
2018-09-17T04:49:35.806Z,81.30
2018-09-17T04:52:04.114Z,81.40
2018-09-17T04:54:32.404Z,81.00
2018-09-17T04:57:00.740Z,81.10
2018-09-17T04:59:29.043Z,81.60
2018-09-17T05:01:57.366Z,82.60
2018-09-17T05:04:25.634Z,82.40
2018-09-17T05:06:53.943Z,82.40
2018-09-17T05:09:22.236Z,82.40
2018-09-17T05:11:50.535Z,82.40
2018-09-17T05:14:32.355Z,82.60
2018-09-17T05:17:00.664Z,82.60
2018-09-17T05:19:28.954Z,82.60
2018-09-17T05:21:57.430Z,83.00
2018-09-17T05:24:25.748Z,82.80
2018-09-17T05:26:54.089Z,83.20
2018-09-17T05:29:22.432Z,83.30
2018-09-17T05:31:50.731Z,83.60
2018-09-17T05:34:19.072Z,83.70
2018-09-17T05:36:47.758Z,84.00
2018-09-17T05:39:16.091Z,84.30
2018-09-17T05:41:44.384Z,84.50
2018-09-17T05:44:12.699Z,84.70
2018-09-17T05:46:40.984Z,84.50
2018-09-17T05:49:09.328Z,84.00
2018-09-17T05:51:37.655Z,83.90
2018-09-17T05:54:05.963Z,84.00
2018-09-17T05:56:34.248Z,84.10
2018-09-17T05:59:02.531Z,84.40
2018-09-17T06:01:30.795Z,84.50
2018-09-17T06:03:59.043Z,84.80
2018-09-17T06:06:27.304Z,85.00
2018-09-17T06:08:55.650Z,85.20
2018-09-17T06:11:24.087Z,85.20
2018-09-17T06:13:52.418Z,85.50
2018-09-17T06:16:20.676Z,85.00
2018-09-17T06:18:48.952Z,84.60
2018-09-17T06:21:17.231Z,84.60
2018-09-17T06:23:45.518Z,84.30
2018-09-17T06:26:13.790Z,84.30
2018-09-17T06:28:42.107Z,84.10
2018-09-17T06:31:10.419Z,83.30
2018-09-17T06:33:38.723Z,83.80
2018-09-17T06:36:07.076Z,84.30
2018-09-17T06:38:35.384Z,84.80
2018-09-17T06:41:03.648Z,83.70
2018-09-17T06:43:31.977Z,83.10
2018-09-17T06:46:00.281Z,82.90
2018-09-17T06:48:28.560Z,82.50
2018-09-17T06:50:56.839Z,83.10
2018-09-17T06:53:25.137Z,83.00
2018-09-17T06:55:53.441Z,82.90
2018-09-17T06:58:22.167Z,82.30
2018-09-17T07:00:50.468Z,82.20
2018-09-17T07:03:18.722Z,82.70
2018-09-17T07:05:46.996Z,82.60
2018-09-17T07:08:15.285Z,82.60
2018-09-17T07:10:43.574Z,82.10
2018-09-17T07:13:11.840Z,81.70
2018-09-17T07:15:40.138Z,81.40
2018-09-17T07:18:08.445Z,81.50
2018-09-17T07:20:36.719Z,81.20
2018-09-17T07:23:05.039Z,81.30
2018-09-17T07:25:33.411Z,81.70
2018-09-17T07:28:01.780Z,82.10
2018-09-17T07:30:30.147Z,81.90
2018-09-17T07:32:58.429Z,81.70
2018-09-17T07:35:26.899Z,82.00
2018-09-17T07:37:55.183Z,81.50
2018-09-17T07:40:23.720Z,81.40
2018-09-17T07:42:52.062Z,81.20
2018-09-17T07:45:20.576Z,81.60
2018-09-17T07:47:49.071Z,82.00
2018-09-17T07:50:17.455Z,81.30
2018-09-17T07:52:45.696Z,81.70
2018-09-17T07:55:14.015Z,81.80
2018-09-17T07:57:42.320Z,82.00
2018-09-17T08:00:10.630Z,83.40
2018-09-17T08:02:40.323Z,82.80
2018-09-17T08:05:08.621Z,82.80
2018-09-17T08:07:38.268Z,82.40
2018-09-17T08:10:06.696Z,82.30
2018-09-17T08:12:34.956Z,82.90
2018-09-17T08:15:09.560Z,82.00
2018-09-17T08:17:39.036Z,81.90
2018-09-17T08:20:07.395Z,82.40
2018-09-17T08:22:35.716Z,83.00
2018-09-17T08:25:04.113Z,82.60
2018-09-17T08:27:32.494Z,82.50
2018-09-17T08:30:00.768Z,82.50
2018-09-17T08:32:29.103Z,83.00
2018-09-17T08:34:57.386Z,82.50
2018-09-17T08:37:25.643Z,82.40
2018-09-17T08:39:53.926Z,82.70
2018-09-17T08:42:22.228Z,82.80
2018-09-17T08:44:50.516Z,82.10
2018-09-17T08:47:18.846Z,81.90
2018-09-17T08:49:47.147Z,81.90
2018-09-17T08:52:15.561Z,82.50
2018-09-17T08:54:49.445Z,82.30
2018-09-17T08:57:23.190Z,82.10
2018-09-17T08:59:56.825Z,82.00
2018-09-17T09:02:30.645Z,82.20
2018-09-17T09:05:04.594Z,82.10
2018-09-17T09:07:40.247Z,81.50
2018-09-17T09:10:14.096Z,81.30
2018-09-17T09:12:46.812Z,81.20
2018-09-17T09:15:27.345Z,81.00
2018-09-17T09:17:55.638Z,81.00
2018-09-17T09:20:23.939Z,80.70
2018-09-17T09:22:52.230Z,80.60
2018-09-17T09:25:20.645Z,79.60
2018-09-17T09:27:48.897Z,79.70
2018-09-17T09:30:17.287Z,79.80
2018-09-17T09:32:45.655Z,80.20
2018-09-17T09:35:13.934Z,78.90
2018-09-17T09:37:43.120Z,79.20
2018-09-17T09:40:11.360Z,79.50
2018-09-17T09:42:41.587Z,78.60
2018-09-17T09:45:09.874Z,78.80
2018-09-17T09:47:39.668Z,79.10
2018-09-17T09:50:08.072Z,79.50
2018-09-17T09:52:36.414Z,79.70
2018-09-17T09:55:04.832Z,80.10
2018-09-17T09:57:33.128Z,79.60
2018-09-17T10:00:01.403Z,79.50
2018-09-17T10:02:35.010Z,79.60
2018-09-17T10:05:04.374Z,79.10
2018-09-17T10:07:32.635Z,78.60
2018-09-17T10:10:06.343Z,78.30
2018-09-17T10:12:40.116Z,77.90
2018-09-17T10:15:39.739Z,78.10
2018-09-17T10:18:13.567Z,77.90
2018-09-17T10:20:41.815Z,78.40
2018-09-17T10:23:10.100Z,78.20
2018-09-17T10:25:38.375Z,77.40
2018-09-17T10:28:06.689Z,77.40
2018-09-17T10:30:34.941Z,76.60
2018-09-17T10:33:03.195Z,75.70
2018-09-17T10:35:31.504Z,75.20
2018-09-17T10:37:59.794Z,74.80
2018-09-17T10:40:28.117Z,74.60
2018-09-17T10:42:56.419Z,74.70
2018-09-17T10:45:24.674Z,75.40
2018-09-17T10:47:52.999Z,76.20
2018-09-17T10:50:21.599Z,74.70
2018-09-17T10:52:49.882Z,74.00
2018-09-17T10:55:18.387Z,73.60
2018-09-17T10:57:46.628Z,74.20
2018-09-17T11:00:14.915Z,74.00
2018-09-17T11:02:43.224Z,74.00
2018-09-17T11:05:11.504Z,73.60
2018-09-17T11:07:41.148Z,72.90
2018-09-17T11:10:09.595Z,73.40
2018-09-17T11:12:39.068Z,72.30
2018-09-17T11:15:36.149Z,72.20
2018-09-17T11:18:04.472Z,71.70
2018-09-17T11:20:32.762Z,71.20
2018-09-17T11:23:01.031Z,71.50
2018-09-17T11:25:29.305Z,70.30
2018-09-17T11:27:57.566Z,69.10
2018-09-17T11:30:26.539Z,69.20
2018-09-17T11:32:54.843Z,69.70
2018-09-17T11:35:23.388Z,70.00
2018-09-17T11:37:51.690Z,69.80
2018-09-17T11:40:20.303Z,69.80
2018-09-17T11:42:48.624Z,70.10
2018-09-17T11:45:16.954Z,69.40
2018-09-17T11:47:45.224Z,69.60
2018-09-17T11:50:13.509Z,69.30
2018-09-17T11:52:41.816Z,68.50
2018-09-17T11:55:10.101Z,68.60
2018-09-17T11:57:39.604Z,67.30
2018-09-17T12:00:08.239Z,66.70
2018-09-17T12:02:37.060Z,65.80
2018-09-17T12:05:08.406Z,64.30
2018-09-17T12:07:41.757Z,61.30
2018-09-17T12:10:10.870Z,59.60
2018-09-17T12:12:40.577Z,57.10
2018-09-17T12:15:59.133Z,56.60
2018-09-17T12:18:27.421Z,55.50
2018-09-17T12:20:55.695Z,54.40
2018-09-17T12:23:24.020Z,54.60
2018-09-17T12:25:52.354Z,52.00
2018-09-17T12:28:20.651Z,50.50
2018-09-17T12:30:48.993Z,49.60
2018-09-17T12:33:17.270Z,48.70
2018-09-17T12:35:45.611Z,47.80
2018-09-17T12:38:13.878Z,47.00
2018-09-17T12:40:42.192Z,45.60
2018-09-17T12:43:10.455Z,44.90
2018-09-17T12:45:38.779Z,43.10
2018-09-17T12:48:07.067Z,42.50
2018-09-17T12:50:35.356Z,42.50
2018-09-17T12:53:03.639Z,42.50
2018-09-17T12:55:31.928Z,42.00
2018-09-17T12:58:00.237Z,41.90
2018-09-17T13:00:28.588Z,41.30
2018-09-17T13:02:56.856Z,41.90
2018-09-17T13:05:25.287Z,42.30
2018-09-17T13:07:53.681Z,41.10
2018-09-17T13:10:22.273Z,40.70
2018-09-17T13:12:50.723Z,40.40
2018-09-17T13:16:04.734Z,40.50
2018-09-17T13:18:33.044Z,40.40
2018-09-17T13:21:01.327Z,38.80
2018-09-17T13:23:29.647Z,38.50
2018-09-17T13:25:57.925Z,37.50
2018-09-17T13:28:26.184Z,35.90
2018-09-17T13:30:54.467Z,36.30
2018-09-17T13:33:22.783Z,33.40
2018-09-17T13:35:51.162Z,33.20
2018-09-17T13:38:19.531Z,34.60
2018-09-17T13:40:47.832Z,34.50
2018-09-17T13:43:16.120Z,33.30
2018-09-17T13:45:44.394Z,33.60
2018-09-17T13:48:12.727Z,33.00
2018-09-17T13:50:41.032Z,31.80
2018-09-17T13:53:09.340Z,32.30
2018-09-17T13:55:37.560Z,33.30
2018-09-17T13:58:05.923Z,33.50
2018-09-17T14:00:34.246Z,34.60
2018-09-17T14:03:02.579Z,32.80
2018-09-17T14:05:30.898Z,32.80
2018-09-17T14:07:59.252Z,33.30
2018-09-17T14:10:27.895Z,32.10
2018-09-17T14:12:56.210Z,31.70
2018-09-17T14:18:41.258Z,28.40
2018-09-17T14:21:09.623Z,29.50
2018-09-17T14:23:37.928Z,30.00
2018-09-17T14:26:06.328Z,30.00
2018-09-17T14:28:34.526Z,30.70
2018-09-17T14:31:02.854Z,32.10
2018-09-17T14:33:38.651Z,32.80
2018-09-17T14:36:07.055Z,33.10
2018-09-17T14:38:35.322Z,33.60
2018-09-17T14:41:03.707Z,33.10
2018-09-17T14:43:32.041Z,32.50
2018-09-17T14:46:00.363Z,33.30
2018-09-17T14:48:28.639Z,32.90
2018-09-17T14:50:56.972Z,33.50
2018-09-17T14:53:25.373Z,34.60
2018-09-17T14:55:53.626Z,35.00
2018-09-17T14:58:21.929Z,35.30
2018-09-17T15:00:50.328Z,34.90
2018-09-17T15:03:18.627Z,35.30
2018-09-17T15:05:46.975Z,36.10
2018-09-17T15:08:15.431Z,36.50
2018-09-17T15:10:43.587Z,37.00
2018-09-17T15:13:11.836Z,37.30
2018-09-17T15:19:06.623Z,37.00
2018-09-17T15:21:34.896Z,37.00
2018-09-17T15:24:03.245Z,37.40
2018-09-17T15:26:31.580Z,37.80
2018-09-17T15:28:59.882Z,38.70
2018-09-17T15:31:28.204Z,39.10
2018-09-17T15:33:56.733Z,39.80
2018-09-17T15:36:25.304Z,39.20
2018-09-17T15:38:53.754Z,39.70
2018-09-17T15:41:22.686Z,40.60
2018-09-17T15:43:50.940Z,40.20
2018-09-17T15:46:19.280Z,39.80
2018-09-17T15:48:47.548Z,39.70
2018-09-17T15:51:15.827Z,40.00
2018-09-17T15:53:44.133Z,39.60
2018-09-17T15:56:12.495Z,39.30
2018-09-17T15:58:40.800Z,39.20
2018-09-17T16:01:09.099Z,39.20
2018-09-17T16:03:37.356Z,38.50
2018-09-17T16:06:05.632Z,39.10
2018-09-17T16:08:33.996Z,39.60
2018-09-17T16:11:17.330Z,40.10
2018-09-17T16:13:45.604Z,40.40
2018-09-17T16:16:52.713Z,40.90
2018-09-17T16:19:21.171Z,41.40
2018-09-17T16:21:49.420Z,41.60
2018-09-17T16:24:17.711Z,42.10
2018-09-17T16:26:45.995Z,42.10
2018-09-17T16:29:14.258Z,42.70
2018-09-17T16:31:42.515Z,43.10
2018-09-17T16:34:10.833Z,43.60
2018-09-17T16:36:39.122Z,43.90
2018-09-17T16:39:08.887Z,43.90
2018-09-17T16:41:37.238Z,44.60
2018-09-17T16:44:05.563Z,44.90
2018-09-17T16:46:34.359Z,45.20
2018-09-17T16:49:02.828Z,46.50
2018-09-17T16:51:31.515Z,47.20
2018-09-17T16:53:59.884Z,48.60
2018-09-17T16:56:28.324Z,50.40
2018-09-17T16:58:56.719Z,50.80
2018-09-17T17:01:24.955Z,51.50
2018-09-17T17:03:53.199Z,51.50
2018-09-17T17:06:21.515Z,51.80
2018-09-17T17:08:49.871Z,52.10
2018-09-17T17:11:22.566Z,52.40
2018-09-17T17:13:50.794Z,52.70
2018-09-17T17:16:58.180Z,53.10
2018-09-17T17:19:26.479Z,53.60
2018-09-17T17:21:54.764Z,54.70
2018-09-17T17:24:23.106Z,54.50
2018-09-17T17:26:57.873Z,54.60
2018-09-17T17:29:26.154Z,54.50
2018-09-17T17:31:54.402Z,54.50
2018-09-17T17:34:22.698Z,54.90
2018-09-17T17:36:50.992Z,54.80
2018-09-17T17:39:19.275Z,54.80
2018-09-17T17:41:47.583Z,55.00
2018-09-17T17:44:15.895Z,55.10
2018-09-17T17:46:44.183Z,55.20
2018-09-17T17:49:12.488Z,55.60
2018-09-17T17:51:40.821Z,55.70
2018-09-17T17:57:02.481Z,56.40
2018-09-17T17:59:30.923Z,56.50
2018-09-17T18:01:59.411Z,56.50
2018-09-17T18:04:27.809Z,56.70
2018-09-17T18:06:56.255Z,56.90
2018-09-17T18:09:24.780Z,57.20
2018-09-17T18:11:53.859Z,57.30
2018-09-17T18:14:45.883Z,57.70
2018-09-17T18:17:14.623Z,58.30
2018-09-17T18:19:43.451Z,57.60
2018-09-17T18:22:11.960Z,57.40
2018-09-17T18:24:40.447Z,57.10
2018-09-17T18:27:08.953Z,57.10
2018-09-17T18:29:37.399Z,57.60
2018-09-17T18:32:05.911Z,56.80
2018-09-17T18:34:34.286Z,57.00
2018-09-17T18:37:02.566Z,57.30
2018-09-17T18:39:31.010Z,57.60
2018-09-17T18:41:59.242Z,57.80
2018-09-17T18:44:27.719Z,58.00
2018-09-17T18:46:56.302Z,58.20
2018-09-17T18:49:24.618Z,58.40
2018-09-17T18:51:53.069Z,58.70
2018-09-17T18:54:21.619Z,59.30
2018-09-17T18:56:50.284Z,59.50
2018-09-17T18:59:18.629Z,59.80
2018-09-17T19:01:47.046Z,59.80
2018-09-17T19:04:15.450Z,59.90
2018-09-17T19:06:43.707Z,60.60
2018-09-17T19:09:12.066Z,61.00
2018-09-17T19:11:40.617Z,61.30
2018-09-17T19:14:22.771Z,61.50
2018-09-17T19:17:19.437Z,61.70
2018-09-17T19:19:47.948Z,61.90
2018-09-17T19:22:21.825Z,62.10
2018-09-17T19:24:50.222Z,62.40
2018-09-17T19:27:18.703Z,62.30
2018-09-17T19:29:47.826Z,62.30
2018-09-17T19:32:16.491Z,62.60
2018-09-17T19:34:44.848Z,62.90
2018-09-17T19:37:18.767Z,63.00
2018-09-17T19:39:52.425Z,63.20
2018-09-17T19:42:20.995Z,63.40
2018-09-17T19:44:54.852Z,63.40
2018-09-17T19:47:23.232Z,63.60
2018-09-17T19:49:51.700Z,63.70
2018-09-17T19:52:22.850Z,63.60
2018-09-17T19:54:51.631Z,63.60
2018-09-17T19:57:25.550Z,63.50
2018-09-17T19:59:54.937Z,63.70
2018-09-17T20:02:23.675Z,63.60
2018-09-17T20:04:57.684Z,64.00
2018-09-17T20:07:26.237Z,64.20
2018-09-17T20:09:54.611Z,64.20
2018-09-17T20:12:23.179Z,64.50
2018-09-17T20:15:29.367Z,64.90
2018-09-17T20:17:58.236Z,65.00
2018-09-17T20:20:26.858Z,65.30
2018-09-17T20:22:55.304Z,65.60
2018-09-17T20:25:29.186Z,65.90
2018-09-17T20:28:18.723Z,66.00
2018-09-17T20:30:47.083Z,66.30
2018-09-17T20:33:15.912Z,66.50
2018-09-17T20:35:44.660Z,66.40
2018-09-17T20:38:13.168Z,66.60
2018-09-17T20:40:41.808Z,66.50
2018-09-17T20:43:10.612Z,66.40
2018-09-17T20:45:39.342Z,66.40
2018-09-17T20:48:07.986Z,66.50
2018-09-17T20:50:36.701Z,66.80
2018-09-17T20:53:05.110Z,66.90
2018-09-17T20:55:33.465Z,67.90
2018-09-17T20:58:02.059Z,67.40
2018-09-17T21:00:30.738Z,67.50
2018-09-17T21:02:59.939Z,67.60
2018-09-17T21:05:28.585Z,67.90
2018-09-17T21:07:57.322Z,68.10
2018-09-17T21:10:25.675Z,68.20
2018-09-17T21:12:54.329Z,68.30
2018-09-17T21:16:13.893Z,68.30
2018-09-17T21:18:42.571Z,68.40
2018-09-17T21:21:11.451Z,68.50
2018-09-17T21:23:40.423Z,68.60
2018-09-17T21:26:09.162Z,68.70
2018-09-17T21:28:37.822Z,68.80
2018-09-17T21:31:10.919Z,69.00
2018-09-17T21:33:39.400Z,69.10
2018-09-17T21:36:07.835Z,70.10
2018-09-17T21:38:36.220Z,69.30
2018-09-17T21:41:04.909Z,69.30
2018-09-17T21:43:33.607Z,69.60
2018-09-17T21:46:02.019Z,69.70
2018-09-17T21:48:30.440Z,69.90
2018-09-17T21:50:59.229Z,69.90
2018-09-17T21:53:27.690Z,70.00
2018-09-17T21:55:56.203Z,70.00
2018-09-17T21:58:24.901Z,70.10
2018-09-17T22:00:58.917Z,70.20
2018-09-17T22:03:28.079Z,70.30
2018-09-17T22:05:57.769Z,70.40
2018-09-17T22:08:26.635Z,70.30
2018-09-17T22:10:54.986Z,70.20
2018-09-17T22:13:23.590Z,70.40
2018-09-17T22:15:52.179Z,70.40
2018-09-17T22:18:20.684Z,70.60
2018-09-17T22:20:49.069Z,70.60
2018-09-17T22:23:17.499Z,70.70
2018-09-17T22:25:46.011Z,70.70
2018-09-17T22:28:14.588Z,70.80
2018-09-17T22:30:42.962Z,70.90
2018-09-17T22:33:11.443Z,70.90
2018-09-17T22:35:39.917Z,70.90
2018-09-17T22:38:08.749Z,71.00
2018-09-17T22:40:37.187Z,71.00
2018-09-17T22:43:05.645Z,71.10
2018-09-17T22:45:34.022Z,71.20
2018-09-17T22:48:02.388Z,71.30
2018-09-17T22:50:30.715Z,71.40
2018-09-17T22:52:59.327Z,71.80
2018-09-17T22:55:27.963Z,72.00
2018-09-17T22:57:56.339Z,72.60
2018-09-17T23:00:24.689Z,72.80
2018-09-17T23:02:53.173Z,72.60
2018-09-17T23:05:21.798Z,72.80
2018-09-17T23:07:50.234Z,72.80
2018-09-17T23:10:18.787Z,72.80
2018-09-17T23:12:47.254Z,72.70
2018-09-17T23:15:16.031Z,72.50
2018-09-17T23:17:44.378Z,72.70
2018-09-17T23:20:12.749Z,72.60
2018-09-17T23:22:42.651Z,72.50
2018-09-17T23:25:11.084Z,72.60
2018-09-17T23:27:39.450Z,72.60
2018-09-17T23:30:07.908Z,72.80
2018-09-17T23:32:36.369Z,72.90
2018-09-17T23:35:04.769Z,73.10
2018-09-17T23:37:33.163Z,73.40
2018-09-17T23:40:01.552Z,73.50
2018-09-17T23:42:29.931Z,73.70
2018-09-17T23:44:58.315Z,73.90
2018-09-17T23:47:26.659Z,73.80
2018-09-17T23:49:55.035Z,73.70
2018-09-17T23:52:23.386Z,73.70
2018-09-17T23:54:51.842Z,73.60
2018-09-17T23:57:20.727Z,74.10
2018-09-17T23:59:49.444Z,74.60
